sensor_id;sensor_type;location;lat;lon;timestamp;P1;durP1;ratioP1;P2;durP2;ratioP2
1048;SDS011;513;51.444;7.196;2022-09-09T00:00:22;2.17;;;1.20;;
1048;SDS011;513;51.444;7.196;2022-09-09T00:02:51;1.83;;;1.40;;
1048;SDS011;513;51.444;7.196;2022-09-09T00:05:24;2.30;;;1.17;;
1048;SDS011;513;51.444;7.196;2022-09-09T00:07:57;2.67;;;1.40;;
1048;SDS011;513;51.444;7.196;2022-09-09T00:10:30;1.77;;;1.30;;
1048;SDS011;513;51.444;7.196;2022-09-09T00:13:00;2.37;;;1.30;;
1048;SDS011;513;51.444;7.196;2022-09-09T00:15:34;3.13;;;1.13;;
1048;SDS011;513;51.444;7.196;2022-09-09T00:18:13;2.87;;;1.70;;
1048;SDS011;513;51.444;7.196;2022-09-09T00:20:47;4.97;;;1.47;;
1048;SDS011;513;51.444;7.196;2022-09-09T00:23:23;4.00;;;1.37;;
1048;SDS011;513;51.444;7.196;2022-09-09T00:25:55;5.43;;;1.20;;
1048;SDS011;513;51.444;7.196;2022-09-09T00:28:29;2.50;;;1.50;;
1048;SDS011;513;51.444;7.196;2022-09-09T00:30:59;4.13;;;1.30;;
1048;SDS011;513;51.444;7.196;2022-09-09T00:33:33;4.40;;;1.60;;
1048;SDS011;513;51.444;7.196;2022-09-09T00:36:00;5.10;;;1.40;;
1048;SDS011;513;51.444;7.196;2022-09-09T00:38:28;3.97;;;1.50;;
1048;SDS011;513;51.444;7.196;2022-09-09T00:41:03;2.73;;;1.33;;
1048;SDS011;513;51.444;7.196;2022-09-09T00:43:35;4.10;;;1.47;;
1048;SDS011;513;51.444;7.196;2022-09-09T00:46:06;3.50;;;1.57;;
1048;SDS011;513;51.444;7.196;2022-09-09T00:48:52;3.07;;;1.63;;
1048;SDS011;513;51.444;7.196;2022-09-09T00:51:26;3.73;;;1.40;;
1048;SDS011;513;51.444;7.196;2022-09-09T00:54:12;2.17;;;1.27;;
1048;SDS011;513;51.444;7.196;2022-09-09T00:56:52;3.23;;;1.60;;
1048;SDS011;513;51.444;7.196;2022-09-09T00:59:32;2.07;;;1.60;;
1048;SDS011;513;51.444;7.196;2022-09-09T01:02:12;1.87;;;1.50;;
1048;SDS011;513;51.444;7.196;2022-09-09T01:04:43;3.30;;;2.50;;
1048;SDS011;513;51.444;7.196;2022-09-09T01:07:12;4.20;;;2.57;;
1048;SDS011;513;51.444;7.196;2022-09-09T01:09:45;5.27;;;2.70;;
1048;SDS011;513;51.444;7.196;2022-09-09T01:12:24;4.73;;;2.60;;
1048;SDS011;513;51.444;7.196;2022-09-09T01:14:56;5.13;;;2.80;;
1048;SDS011;513;51.444;7.196;2022-09-09T01:17:28;6.10;;;3.30;;
1048;SDS011;513;51.444;7.196;2022-09-09T01:20:02;6.87;;;3.40;;
1048;SDS011;513;51.444;7.196;2022-09-09T01:22:35;4.10;;;3.47;;
1048;SDS011;513;51.444;7.196;2022-09-09T01:28:08;9.70;;;4.63;;
1048;SDS011;513;51.444;7.196;2022-09-09T01:30:38;9.27;;;4.67;;
1048;SDS011;513;51.444;7.196;2022-09-09T01:33:07;6.23;;;4.90;;
1048;SDS011;513;51.444;7.196;2022-09-09T01:35:40;9.87;;;5.97;;
1048;SDS011;513;51.444;7.196;2022-09-09T01:38:13;10.73;;;6.33;;
1048;SDS011;513;51.444;7.196;2022-09-09T01:40:40;13.30;;;7.00;;
1048;SDS011;513;51.444;7.196;2022-09-09T01:43:09;10.13;;;7.13;;
1048;SDS011;513;51.444;7.196;2022-09-09T01:45:36;12.23;;;8.07;;
1048;SDS011;513;51.444;7.196;2022-09-09T01:48:05;11.67;;;8.77;;
1048;SDS011;513;51.444;7.196;2022-09-09T01:50:31;15.80;;;9.87;;
1048;SDS011;513;51.444;7.196;2022-09-09T01:52:59;15.97;;;10.83;;
1048;SDS011;513;51.444;7.196;2022-09-09T01:55:29;16.00;;;10.07;;
1048;SDS011;513;51.444;7.196;2022-09-09T01:58:01;12.17;;;8.93;;
1048;SDS011;513;51.444;7.196;2022-09-09T02:00:45;11.00;;;8.20;;
1048;SDS011;513;51.444;7.196;2022-09-09T02:03:20;13.90;;;7.57;;
1048;SDS011;513;51.444;7.196;2022-09-09T02:05:52;10.83;;;6.80;;
1048;SDS011;513;51.444;7.196;2022-09-09T02:08:29;10.83;;;6.37;;
1048;SDS011;513;51.444;7.196;2022-09-09T02:11:05;11.50;;;5.77;;
1048;SDS011;513;51.444;7.196;2022-09-09T02:13:36;8.70;;;5.83;;
1048;SDS011;513;51.444;7.196;2022-09-09T02:16:05;11.10;;;5.90;;
1048;SDS011;513;51.444;7.196;2022-09-09T02:18:35;10.07;;;5.73;;
1048;SDS011;513;51.444;7.196;2022-09-09T02:21:07;9.20;;;5.33;;
1048;SDS011;513;51.444;7.196;2022-09-09T02:23:36;9.47;;;5.20;;
1048;SDS011;513;51.444;7.196;2022-09-09T02:26:05;8.13;;;5.60;;
1048;SDS011;513;51.444;7.196;2022-09-09T02:28:35;8.77;;;5.50;;
1048;SDS011;513;51.444;7.196;2022-09-09T02:31:04;9.97;;;5.17;;
1048;SDS011;513;51.444;7.196;2022-09-09T02:33:33;6.93;;;5.30;;
1048;SDS011;513;51.444;7.196;2022-09-09T02:36:03;6.90;;;5.07;;
1048;SDS011;513;51.444;7.196;2022-09-09T02:38:33;9.13;;;4.77;;
1048;SDS011;513;51.444;7.196;2022-09-09T02:41:04;10.27;;;5.13;;
1048;SDS011;513;51.444;7.196;2022-09-09T02:43:31;9.33;;;5.10;;
1048;SDS011;513;51.444;7.196;2022-09-09T02:46:03;14.07;;;4.93;;
1048;SDS011;513;51.444;7.196;2022-09-09T02:48:51;8.23;;;4.70;;
1048;SDS011;513;51.444;7.196;2022-09-09T02:51:26;9.90;;;4.73;;
1048;SDS011;513;51.444;7.196;2022-09-09T02:53:59;15.37;;;5.30;;
1048;SDS011;513;51.444;7.196;2022-09-09T02:56:36;6.73;;;4.73;;
1048;SDS011;513;51.444;7.196;2022-09-09T02:59:07;7.60;;;4.57;;
1048;SDS011;513;51.444;7.196;2022-09-09T03:01:36;9.40;;;4.40;;
1048;SDS011;513;51.444;7.196;2022-09-09T03:04:05;6.73;;;4.07;;
1048;SDS011;513;51.444;7.196;2022-09-09T03:06:31;9.80;;;4.43;;
1048;SDS011;513;51.444;7.196;2022-09-09T03:08:58;11.30;;;4.53;;
1048;SDS011;513;51.444;7.196;2022-09-09T03:11:27;6.90;;;3.97;;
1048;SDS011;513;51.444;7.196;2022-09-09T03:13:54;6.53;;;4.00;;
1048;SDS011;513;51.444;7.196;2022-09-09T03:16:21;9.17;;;4.30;;
1048;SDS011;513;51.444;7.196;2022-09-09T03:18:49;4.47;;;3.57;;
1048;SDS011;513;51.444;7.196;2022-09-09T03:21:17;6.17;;;3.70;;
1048;SDS011;513;51.444;7.196;2022-09-09T03:23:43;3.90;;;3.50;;
1048;SDS011;513;51.444;7.196;2022-09-09T03:26:11;7.97;;;3.30;;
1048;SDS011;513;51.444;7.196;2022-09-09T03:28:40;8.97;;;4.07;;
1048;SDS011;513;51.444;7.196;2022-09-09T03:31:06;7.20;;;3.47;;
1048;SDS011;513;51.444;7.196;2022-09-09T03:33:35;9.03;;;3.33;;
1048;SDS011;513;51.444;7.196;2022-09-09T03:36:03;9.03;;;3.50;;
1048;SDS011;513;51.444;7.196;2022-09-09T03:38:30;8.97;;;3.53;;
1048;SDS011;513;51.444;7.196;2022-09-09T03:40:58;9.93;;;3.47;;
1048;SDS011;513;51.444;7.196;2022-09-09T03:43:26;4.97;;;3.00;;
1048;SDS011;513;51.444;7.196;2022-09-09T03:45:53;7.83;;;3.10;;
1048;SDS011;513;51.444;7.196;2022-09-09T03:48:21;5.93;;;3.10;;
1048;SDS011;513;51.444;7.196;2022-09-09T03:50:50;7.37;;;3.20;;
1048;SDS011;513;51.444;7.196;2022-09-09T03:53:19;7.13;;;3.53;;
1048;SDS011;513;51.444;7.196;2022-09-09T03:55:48;6.97;;;3.40;;
1048;SDS011;513;51.444;7.196;2022-09-09T03:58:17;7.63;;;4.67;;
1048;SDS011;513;51.444;7.196;2022-09-09T04:00:52;6.87;;;3.43;;
1048;SDS011;513;51.444;7.196;2022-09-09T04:03:20;10.13;;;3.33;;
1048;SDS011;513;51.444;7.196;2022-09-09T04:05:48;9.53;;;3.60;;
1048;SDS011;513;51.444;7.196;2022-09-09T04:08:14;6.33;;;3.50;;
1048;SDS011;513;51.444;7.196;2022-09-09T04:10:42;8.67;;;3.77;;
1048;SDS011;513;51.444;7.196;2022-09-09T04:13:11;6.30;;;3.43;;
1048;SDS011;513;51.444;7.196;2022-09-09T04:15:41;9.90;;;3.43;;
1048;SDS011;513;51.444;7.196;2022-09-09T04:18:08;6.90;;;3.40;;
1048;SDS011;513;51.444;7.196;2022-09-09T04:20:34;6.93;;;2.93;;
1048;SDS011;513;51.444;7.196;2022-09-09T04:23:01;8.90;;;3.20;;
1048;SDS011;513;51.444;7.196;2022-09-09T04:25:28;7.90;;;3.33;;
1048;SDS011;513;51.444;7.196;2022-09-09T04:27:56;6.67;;;3.13;;
1048;SDS011;513;51.444;7.196;2022-09-09T04:30:24;5.30;;;3.20;;
1048;SDS011;513;51.444;7.196;2022-09-09T04:32:52;3.67;;;2.87;;
1048;SDS011;513;51.444;7.196;2022-09-09T04:35:18;5.33;;;3.17;;
1048;SDS011;513;51.444;7.196;2022-09-09T04:37:45;7.43;;;3.03;;
1048;SDS011;513;51.444;7.196;2022-09-09T04:40:12;7.30;;;3.20;;
1048;SDS011;513;51.444;7.196;2022-09-09T04:42:40;12.10;;;3.83;;
1048;SDS011;513;51.444;7.196;2022-09-09T04:45:10;6.97;;;2.90;;
1048;SDS011;513;51.444;7.196;2022-09-09T04:47:38;5.93;;;3.20;;
1048;SDS011;513;51.444;7.196;2022-09-09T04:50:05;12.10;;;3.63;;
1048;SDS011;513;51.444;7.196;2022-09-09T04:52:33;8.07;;;3.47;;
1048;SDS011;513;51.444;7.196;2022-09-09T04:55:00;7.77;;;3.40;;
1048;SDS011;513;51.444;7.196;2022-09-09T04:57:27;10.80;;;3.40;;
1048;SDS011;513;51.444;7.196;2022-09-09T04:59:53;9.27;;;3.63;;
1048;SDS011;513;51.444;7.196;2022-09-09T05:02:21;5.90;;;3.57;;
1048;SDS011;513;51.444;7.196;2022-09-09T05:04:48;7.20;;;3.33;;
1048;SDS011;513;51.444;7.196;2022-09-09T05:07:15;7.80;;;3.63;;
1048;SDS011;513;51.444;7.196;2022-09-09T05:09:42;7.20;;;3.70;;
1048;SDS011;513;51.444;7.196;2022-09-09T05:12:09;6.80;;;3.57;;
1048;SDS011;513;51.444;7.196;2022-09-09T05:14:36;11.47;;;3.83;;
1048;SDS011;513;51.444;7.196;2022-09-09T05:17:03;6.37;;;3.53;;
1048;SDS011;513;51.444;7.196;2022-09-09T05:19:31;7.40;;;3.20;;
1048;SDS011;513;51.444;7.196;2022-09-09T05:21:57;11.03;;;3.60;;
1048;SDS011;513;51.444;7.196;2022-09-09T05:24:26;6.37;;;3.30;;
1048;SDS011;513;51.444;7.196;2022-09-09T05:26:52;9.20;;;3.43;;
1048;SDS011;513;51.444;7.196;2022-09-09T05:29:19;8.77;;;3.33;;
1048;SDS011;513;51.444;7.196;2022-09-09T05:31:46;7.03;;;3.23;;
1048;SDS011;513;51.444;7.196;2022-09-09T05:34:12;9.63;;;3.57;;
1048;SDS011;513;51.444;7.196;2022-09-09T05:36:40;10.77;;;3.40;;
1048;SDS011;513;51.444;7.196;2022-09-09T05:39:07;6.93;;;3.17;;
1048;SDS011;513;51.444;7.196;2022-09-09T05:41:34;7.07;;;2.90;;
1048;SDS011;513;51.444;7.196;2022-09-09T05:44:01;8.37;;;3.70;;
1048;SDS011;513;51.444;7.196;2022-09-09T05:46:28;11.93;;;3.73;;
1048;SDS011;513;51.444;7.196;2022-09-09T05:48:55;6.43;;;2.83;;
1048;SDS011;513;51.444;7.196;2022-09-09T05:51:23;7.77;;;3.50;;
1048;SDS011;513;51.444;7.196;2022-09-09T05:53:54;7.83;;;3.20;;
1048;SDS011;513;51.444;7.196;2022-09-09T05:56:24;9.17;;;3.20;;
1048;SDS011;513;51.444;7.196;2022-09-09T05:58:52;6.67;;;3.20;;
1048;SDS011;513;51.444;7.196;2022-09-09T06:01:20;10.63;;;3.20;;
1048;SDS011;513;51.444;7.196;2022-09-09T06:03:49;8.83;;;4.00;;
1048;SDS011;513;51.444;7.196;2022-09-09T06:06:16;9.37;;;3.00;;
1048;SDS011;513;51.444;7.196;2022-09-09T06:08:47;9.90;;;3.00;;
1048;SDS011;513;51.444;7.196;2022-09-09T06:11:17;6.17;;;2.97;;
1048;SDS011;513;51.444;7.196;2022-09-09T06:13:45;8.10;;;2.77;;
1048;SDS011;513;51.444;7.196;2022-09-09T06:16:13;5.33;;;2.43;;
1048;SDS011;513;51.444;7.196;2022-09-09T06:18:41;5.70;;;2.77;;
1048;SDS011;513;51.444;7.196;2022-09-09T06:21:09;7.27;;;3.13;;
1048;SDS011;513;51.444;7.196;2022-09-09T06:23:41;13.17;;;2.93;;
1048;SDS011;513;51.444;7.196;2022-09-09T06:26:10;11.23;;;3.20;;
1048;SDS011;513;51.444;7.196;2022-09-09T06:28:39;8.00;;;3.50;;
1048;SDS011;513;51.444;7.196;2022-09-09T06:31:08;6.87;;;2.90;;
1048;SDS011;513;51.444;7.196;2022-09-09T06:33:37;10.77;;;3.17;;
1048;SDS011;513;51.444;7.196;2022-09-09T06:36:06;5.73;;;2.80;;
1048;SDS011;513;51.444;7.196;2022-09-09T06:38:36;6.43;;;2.60;;
1048;SDS011;513;51.444;7.196;2022-09-09T06:41:03;9.10;;;2.37;;
1048;SDS011;513;51.444;7.196;2022-09-09T06:43:30;7.90;;;2.47;;
1048;SDS011;513;51.444;7.196;2022-09-09T06:45:59;10.60;;;2.63;;
1048;SDS011;513;51.444;7.196;2022-09-09T06:48:27;5.80;;;2.63;;
1048;SDS011;513;51.444;7.196;2022-09-09T06:51:00;5.17;;;2.73;;
1048;SDS011;513;51.444;7.196;2022-09-09T06:53:28;6.80;;;2.20;;
1048;SDS011;513;51.444;7.196;2022-09-09T06:55:54;3.23;;;2.43;;
1048;SDS011;513;51.444;7.196;2022-09-09T06:58:21;9.97;;;2.00;;
1048;SDS011;513;51.444;7.196;2022-09-09T07:00:48;4.47;;;2.10;;
1048;SDS011;513;51.444;7.196;2022-09-09T07:03:16;7.17;;;2.13;;
1048;SDS011;513;51.444;7.196;2022-09-09T07:05:43;5.87;;;2.47;;
1048;SDS011;513;51.444;7.196;2022-09-09T07:08:19;4.30;;;1.97;;
1048;SDS011;513;51.444;7.196;2022-09-09T07:10:45;6.27;;;2.17;;
1048;SDS011;513;51.444;7.196;2022-09-09T07:13:12;5.13;;;1.47;;
1048;SDS011;513;51.444;7.196;2022-09-09T07:15:40;4.07;;;1.90;;
1048;SDS011;513;51.444;7.196;2022-09-09T07:18:07;6.00;;;1.40;;
1048;SDS011;513;51.444;7.196;2022-09-09T07:20:36;2.53;;;1.30;;
1048;SDS011;513;51.444;7.196;2022-09-09T07:23:03;4.70;;;1.67;;
1048;SDS011;513;51.444;7.196;2022-09-09T07:25:29;6.60;;;1.50;;
1048;SDS011;513;51.444;7.196;2022-09-09T07:27:56;3.57;;;1.60;;
1048;SDS011;513;51.444;7.196;2022-09-09T07:30:23;3.57;;;1.60;;
1048;SDS011;513;51.444;7.196;2022-09-09T07:32:50;5.00;;;1.63;;
1048;SDS011;513;51.444;7.196;2022-09-09T07:35:17;3.47;;;1.63;;
1048;SDS011;513;51.444;7.196;2022-09-09T07:37:46;5.17;;;1.43;;
1048;SDS011;513;51.444;7.196;2022-09-09T07:40:13;4.50;;;1.23;;
1048;SDS011;513;51.444;7.196;2022-09-09T07:42:40;3.87;;;1.00;;
1048;SDS011;513;51.444;7.196;2022-09-09T07:45:06;4.27;;;1.40;;
1048;SDS011;513;51.444;7.196;2022-09-09T07:47:33;8.30;;;1.60;;
1048;SDS011;513;51.444;7.196;2022-09-09T07:50:00;3.33;;;1.50;;
1048;SDS011;513;51.444;7.196;2022-09-09T07:52:27;4.83;;;1.40;;
1048;SDS011;513;51.444;7.196;2022-09-09T07:54:55;4.40;;;1.40;;
1048;SDS011;513;51.444;7.196;2022-09-09T07:57:22;7.00;;;1.27;;
1048;SDS011;513;51.444;7.196;2022-09-09T07:59:49;8.30;;;1.60;;
1048;SDS011;513;51.444;7.196;2022-09-09T08:02:16;9.27;;;1.10;;
1048;SDS011;513;51.444;7.196;2022-09-09T08:04:43;4.43;;;1.27;;
1048;SDS011;513;51.444;7.196;2022-09-09T08:07:11;5.90;;;1.50;;
1048;SDS011;513;51.444;7.196;2022-09-09T08:09:38;6.07;;;1.20;;
1048;SDS011;513;51.444;7.196;2022-09-09T08:12:06;8.13;;;1.50;;
1048;SDS011;513;51.444;7.196;2022-09-09T08:14:33;5.87;;;1.40;;
1048;SDS011;513;51.444;7.196;2022-09-09T08:17:00;3.47;;;1.57;;
1048;SDS011;513;51.444;7.196;2022-09-09T08:19:27;3.67;;;1.10;;
1048;SDS011;513;51.444;7.196;2022-09-09T08:21:55;4.77;;;1.30;;
1048;SDS011;513;51.444;7.196;2022-09-09T08:24:22;5.40;;;1.37;;
1048;SDS011;513;51.444;7.196;2022-09-09T08:26:48;6.23;;;1.20;;
1048;SDS011;513;51.444;7.196;2022-09-09T08:29:17;6.10;;;1.20;;
1048;SDS011;513;51.444;7.196;2022-09-09T08:31:45;5.93;;;1.40;;
1048;SDS011;513;51.444;7.196;2022-09-09T08:34:13;8.00;;;1.33;;
1048;SDS011;513;51.444;7.196;2022-09-09T08:36:41;5.43;;;1.27;;
1048;SDS011;513;51.444;7.196;2022-09-09T08:39:09;8.00;;;1.30;;
1048;SDS011;513;51.444;7.196;2022-09-09T08:41:41;8.27;;;1.23;;
1048;SDS011;513;51.444;7.196;2022-09-09T08:44:26;3.67;;;1.30;;
1048;SDS011;513;51.444;7.196;2022-09-09T08:47:02;3.67;;;1.10;;
1048;SDS011;513;51.444;7.196;2022-09-09T08:49:38;7.13;;;1.70;;
1048;SDS011;513;51.444;7.196;2022-09-09T08:52:28;3.70;;;1.23;;
1048;SDS011;513;51.444;7.196;2022-09-09T08:54:59;4.10;;;1.20;;
1048;SDS011;513;51.444;7.196;2022-09-09T08:57:37;7.10;;;1.20;;
1048;SDS011;513;51.444;7.196;2022-09-09T09:00:07;4.67;;;1.83;;
1048;SDS011;513;51.444;7.196;2022-09-09T09:02:37;6.50;;;1.67;;
1048;SDS011;513;51.444;7.196;2022-09-09T09:05:15;3.90;;;1.43;;
1048;SDS011;513;51.444;7.196;2022-09-09T09:07:50;6.03;;;1.33;;
1048;SDS011;513;51.444;7.196;2022-09-09T09:10:33;4.53;;;1.60;;
1048;SDS011;513;51.444;7.196;2022-09-09T09:13:10;9.83;;;1.77;;
1048;SDS011;513;51.444;7.196;2022-09-09T09:15:40;6.00;;;2.00;;
1048;SDS011;513;51.444;7.196;2022-09-09T09:18:08;6.90;;;2.00;;
1048;SDS011;513;51.444;7.196;2022-09-09T09:20:39;5.10;;;1.73;;
1048;SDS011;513;51.444;7.196;2022-09-09T09:23:15;6.87;;;2.00;;
1048;SDS011;513;51.444;7.196;2022-09-09T09:25:48;3.47;;;1.40;;
1048;SDS011;513;51.444;7.196;2022-09-09T09:28:17;5.87;;;1.60;;
1048;SDS011;513;51.444;7.196;2022-09-09T09:30:49;5.53;;;1.30;;
1048;SDS011;513;51.444;7.196;2022-09-09T09:33:20;4.60;;;1.37;;
1048;SDS011;513;51.444;7.196;2022-09-09T09:35:50;6.27;;;1.67;;
1048;SDS011;513;51.444;7.196;2022-09-09T09:38:19;7.60;;;1.80;;
1048;SDS011;513;51.444;7.196;2022-09-09T09:40:48;5.50;;;1.33;;
1048;SDS011;513;51.444;7.196;2022-09-09T09:43:18;5.37;;;1.40;;
1048;SDS011;513;51.444;7.196;2022-09-09T09:45:51;4.80;;;1.17;;
1048;SDS011;513;51.444;7.196;2022-09-09T09:48:17;3.43;;;1.10;;
1048;SDS011;513;51.444;7.196;2022-09-09T09:50:48;3.07;;;1.00;;
1048;SDS011;513;51.444;7.196;2022-09-09T09:53:18;7.83;;;1.30;;
1048;SDS011;513;51.444;7.196;2022-09-09T09:55:50;5.03;;;1.20;;
1048;SDS011;513;51.444;7.196;2022-09-09T09:58:20;4.10;;;1.00;;
1048;SDS011;513;51.444;7.196;2022-09-09T10:00:47;2.73;;;1.03;;
1048;SDS011;513;51.444;7.196;2022-09-09T10:03:21;4.60;;;1.17;;
1048;SDS011;513;51.444;7.196;2022-09-09T10:05:50;5.67;;;1.10;;
1048;SDS011;513;51.444;7.196;2022-09-09T10:08:18;1.97;;;1.00;;
1048;SDS011;513;51.444;7.196;2022-09-09T10:10:48;5.43;;;1.47;;
1048;SDS011;513;51.444;7.196;2022-09-09T10:13:25;6.00;;;1.37;;
1048;SDS011;513;51.444;7.196;2022-09-09T10:16:00;5.57;;;1.30;;
1048;SDS011;513;51.444;7.196;2022-09-09T10:18:45;6.80;;;1.63;;
1048;SDS011;513;51.444;7.196;2022-09-09T10:21:21;5.10;;;1.20;;
1048;SDS011;513;51.444;7.196;2022-09-09T10:24:06;5.73;;;1.50;;
1048;SDS011;513;51.444;7.196;2022-09-09T10:26:45;4.20;;;1.03;;
1048;SDS011;513;51.444;7.196;2022-09-09T10:29:18;5.63;;;1.30;;
1048;SDS011;513;51.444;7.196;2022-09-09T10:32:02;5.50;;;0.77;;
1048;SDS011;513;51.444;7.196;2022-09-09T10:34:47;4.77;;;0.83;;
1048;SDS011;513;51.444;7.196;2022-09-09T10:37:26;3.57;;;1.10;;
1048;SDS011;513;51.444;7.196;2022-09-09T10:40:12;4.53;;;0.70;;
1048;SDS011;513;51.444;7.196;2022-09-09T10:42:46;3.57;;;1.30;;
1048;SDS011;513;51.444;7.196;2022-09-09T10:45:15;5.63;;;1.00;;
1048;SDS011;513;51.444;7.196;2022-09-09T10:50:47;4.47;;;1.03;;
1048;SDS011;513;51.444;7.196;2022-09-09T10:53:22;4.47;;;1.20;;
1048;SDS011;513;51.444;7.196;2022-09-09T10:56:01;4.03;;;1.13;;
1048;SDS011;513;51.444;7.196;2022-09-09T10:58:33;2.50;;;0.80;;
1048;SDS011;513;51.444;7.196;2022-09-09T11:01:07;2.87;;;0.90;;
1048;SDS011;513;51.444;7.196;2022-09-09T11:03:40;2.20;;;0.67;;
1048;SDS011;513;51.444;7.196;2022-09-09T11:06:12;4.50;;;1.10;;
1048;SDS011;513;51.444;7.196;2022-09-09T11:08:42;3.93;;;0.93;;
1048;SDS011;513;51.444;7.196;2022-09-09T11:11:09;2.93;;;0.90;;
1048;SDS011;513;51.444;7.196;2022-09-09T11:13:42;3.90;;;0.70;;
1048;SDS011;513;51.444;7.196;2022-09-09T11:16:16;2.27;;;0.70;;
1048;SDS011;513;51.444;7.196;2022-09-09T11:18:49;4.67;;;1.00;;
1048;SDS011;513;51.444;7.196;2022-09-09T11:21:21;3.67;;;1.20;;
1048;SDS011;513;51.444;7.196;2022-09-09T11:24:11;3.37;;;1.03;;
1048;SDS011;513;51.444;7.196;2022-09-09T11:26:43;3.10;;;0.80;;
1048;SDS011;513;51.444;7.196;2022-09-09T11:29:20;2.27;;;0.90;;
1048;SDS011;513;51.444;7.196;2022-09-09T11:32:07;3.13;;;0.87;;
1048;SDS011;513;51.444;7.196;2022-09-09T11:34:50;2.33;;;0.87;;
1048;SDS011;513;51.444;7.196;2022-09-09T11:37:46;4.20;;;1.27;;
1048;SDS011;513;51.444;7.196;2022-09-09T11:40:22;5.57;;;1.37;;
1048;SDS011;513;51.444;7.196;2022-09-09T11:42:59;6.17;;;1.07;;
1048;SDS011;513;51.444;7.196;2022-09-09T11:45:30;2.97;;;0.80;;
1048;SDS011;513;51.444;7.196;2022-09-09T11:48:01;2.30;;;0.90;;
1048;SDS011;513;51.444;7.196;2022-09-09T11:50:32;5.77;;;1.13;;
1048;SDS011;513;51.444;7.196;2022-09-09T11:53:06;11.07;;;2.37;;
1048;SDS011;513;51.444;7.196;2022-09-09T11:55:47;2.77;;;0.90;;
1048;SDS011;513;51.444;7.196;2022-09-09T11:58:25;5.07;;;1.40;;
1048;SDS011;513;51.444;7.196;2022-09-09T12:00:54;2.80;;;1.03;;
1048;SDS011;513;51.444;7.196;2022-09-09T12:03:36;4.63;;;1.33;;
1048;SDS011;513;51.444;7.196;2022-09-09T12:06:11;2.93;;;1.30;;
1048;SDS011;513;51.444;7.196;2022-09-09T12:08:43;4.47;;;1.10;;
1048;SDS011;513;51.444;7.196;2022-09-09T12:11:23;2.40;;;0.90;;
1048;SDS011;513;51.444;7.196;2022-09-09T12:13:54;5.00;;;0.90;;
1048;SDS011;513;51.444;7.196;2022-09-09T12:16:29;5.53;;;1.20;;
1048;SDS011;513;51.444;7.196;2022-09-09T12:19:03;1.87;;;0.90;;
1048;SDS011;513;51.444;7.196;2022-09-09T12:21:33;4.83;;;0.83;;
1048;SDS011;513;51.444;7.196;2022-09-09T12:24:07;3.10;;;1.10;;
1048;SDS011;513;51.444;7.196;2022-09-09T12:26:36;1.23;;;0.60;;
1048;SDS011;513;51.444;7.196;2022-09-09T12:29:16;2.73;;;0.93;;
1048;SDS011;513;51.444;7.196;2022-09-09T12:31:51;4.23;;;1.10;;
1048;SDS011;513;51.444;7.196;2022-09-09T12:34:30;4.20;;;1.03;;
1048;SDS011;513;51.444;7.196;2022-09-09T12:37:03;2.50;;;1.03;;
1048;SDS011;513;51.444;7.196;2022-09-09T12:39:37;2.07;;;0.80;;
1048;SDS011;513;51.444;7.196;2022-09-09T12:42:14;2.23;;;0.63;;
1048;SDS011;513;51.444;7.196;2022-09-09T12:44:50;2.03;;;0.60;;
1048;SDS011;513;51.444;7.196;2022-09-09T12:47:18;4.40;;;0.90;;
1048;SDS011;513;51.444;7.196;2022-09-09T12:49:47;2.20;;;0.63;;
1048;SDS011;513;51.444;7.196;2022-09-09T12:52:18;1.70;;;0.80;;
1048;SDS011;513;51.444;7.196;2022-09-09T12:54:51;1.83;;;0.70;;
1048;SDS011;513;51.444;7.196;2022-09-09T12:57:19;5.60;;;1.00;;
1048;SDS011;513;51.444;7.196;2022-09-09T12:59:48;2.27;;;1.03;;
1048;SDS011;513;51.444;7.196;2022-09-09T13:02:17;3.50;;;0.90;;
1048;SDS011;513;51.444;7.196;2022-09-09T13:04:46;5.20;;;1.20;;
1048;SDS011;513;51.444;7.196;2022-09-09T13:07:15;4.97;;;0.73;;
1048;SDS011;513;51.444;7.196;2022-09-09T13:09:42;2.60;;;0.70;;
1048;SDS011;513;51.444;7.196;2022-09-09T13:12:13;2.03;;;1.00;;
1048;SDS011;513;51.444;7.196;2022-09-09T13:14:42;3.67;;;1.00;;
1048;SDS011;513;51.444;7.196;2022-09-09T13:17:17;6.40;;;1.17;;
1048;SDS011;513;51.444;7.196;2022-09-09T13:19:46;2.57;;;0.77;;
1048;SDS011;513;51.444;7.196;2022-09-09T13:22:19;4.77;;;1.10;;
1048;SDS011;513;51.444;7.196;2022-09-09T13:24:47;1.73;;;0.90;;
1048;SDS011;513;51.444;7.196;2022-09-09T13:27:26;2.73;;;1.00;;
1048;SDS011;513;51.444;7.196;2022-09-09T13:29:55;2.67;;;0.93;;
1048;SDS011;513;51.444;7.196;2022-09-09T13:32:23;3.33;;;0.90;;
1048;SDS011;513;51.444;7.196;2022-09-09T13:34:51;4.77;;;0.90;;
1048;SDS011;513;51.444;7.196;2022-09-09T13:37:21;1.83;;;0.80;;
1048;SDS011;513;51.444;7.196;2022-09-09T13:39:52;3.20;;;1.00;;
1048;SDS011;513;51.444;7.196;2022-09-09T13:42:22;4.27;;;1.10;;
1048;SDS011;513;51.444;7.196;2022-09-09T13:44:53;3.10;;;1.57;;
1048;SDS011;513;51.444;7.196;2022-09-09T13:47:21;3.63;;;1.10;;
1048;SDS011;513;51.444;7.196;2022-09-09T13:49:53;2.70;;;1.23;;
1048;SDS011;513;51.444;7.196;2022-09-09T13:52:20;3.00;;;1.20;;
1048;SDS011;513;51.444;7.196;2022-09-09T13:54:47;4.50;;;1.43;;
1048;SDS011;513;51.444;7.196;2022-09-09T13:57:16;4.90;;;1.20;;
1048;SDS011;513;51.444;7.196;2022-09-09T13:59:45;3.37;;;1.30;;
1048;SDS011;513;51.444;7.196;2022-09-09T14:02:13;8.77;;;1.63;;
1048;SDS011;513;51.444;7.196;2022-09-09T14:04:40;3.10;;;1.47;;
1048;SDS011;513;51.444;7.196;2022-09-09T14:07:08;4.67;;;1.23;;
1048;SDS011;513;51.444;7.196;2022-09-09T14:09:37;6.10;;;1.40;;
1048;SDS011;513;51.444;7.196;2022-09-09T14:12:04;5.43;;;1.53;;
1048;SDS011;513;51.444;7.196;2022-09-09T14:14:30;2.50;;;1.00;;
1048;SDS011;513;51.444;7.196;2022-09-09T14:16:58;6.73;;;2.20;;
1048;SDS011;513;51.444;7.196;2022-09-09T14:19:25;6.90;;;4.43;;
1048;SDS011;513;51.444;7.196;2022-09-09T14:21:52;3.10;;;1.20;;
1048;SDS011;513;51.444;7.196;2022-09-09T14:24:19;4.63;;;0.93;;
1048;SDS011;513;51.444;7.196;2022-09-09T14:26:46;3.27;;;1.10;;
1048;SDS011;513;51.444;7.196;2022-09-09T14:29:12;3.67;;;0.93;;
1048;SDS011;513;51.444;7.196;2022-09-09T14:31:39;2.40;;;1.10;;
1048;SDS011;513;51.444;7.196;2022-09-09T14:34:07;5.17;;;1.00;;
1048;SDS011;513;51.444;7.196;2022-09-09T14:36:35;2.13;;;1.20;;
1048;SDS011;513;51.444;7.196;2022-09-09T14:39:02;4.07;;;1.03;;
1048;SDS011;513;51.444;7.196;2022-09-09T14:41:28;1.90;;;0.93;;
1048;SDS011;513;51.444;7.196;2022-09-09T14:43:56;2.67;;;1.13;;
1048;SDS011;513;51.444;7.196;2022-09-09T14:46:22;6.37;;;1.30;;
1048;SDS011;513;51.444;7.196;2022-09-09T14:48:50;2.17;;;1.17;;
1048;SDS011;513;51.444;7.196;2022-09-09T14:51:19;3.17;;;1.23;;
1048;SDS011;513;51.444;7.196;2022-09-09T14:53:47;8.03;;;1.67;;
1048;SDS011;513;51.444;7.196;2022-09-09T14:56:16;2.07;;;1.23;;
1048;SDS011;513;51.444;7.196;2022-09-09T14:58:45;3.90;;;1.73;;
1048;SDS011;513;51.444;7.196;2022-09-09T15:01:13;2.80;;;1.30;;
1048;SDS011;513;51.444;7.196;2022-09-09T15:03:41;3.93;;;1.80;;
1048;SDS011;513;51.444;7.196;2022-09-09T15:06:09;5.03;;;1.73;;
1048;SDS011;513;51.444;7.196;2022-09-09T15:08:40;3.13;;;1.40;;
1048;SDS011;513;51.444;7.196;2022-09-09T15:11:09;5.10;;;1.60;;
1048;SDS011;513;51.444;7.196;2022-09-09T15:13:37;5.07;;;1.67;;
1048;SDS011;513;51.444;7.196;2022-09-09T15:16:06;4.73;;;1.57;;
1048;SDS011;513;51.444;7.196;2022-09-09T15:18:33;2.77;;;1.30;;
1048;SDS011;513;51.444;7.196;2022-09-09T15:21:01;2.53;;;0.90;;
1048;SDS011;513;51.444;7.196;2022-09-09T15:23:30;2.80;;;1.10;;
1048;SDS011;513;51.444;7.196;2022-09-09T15:25:58;2.50;;;0.90;;
1048;SDS011;513;51.444;7.196;2022-09-09T15:28:25;2.67;;;0.90;;
1048;SDS011;513;51.444;7.196;2022-09-09T15:30:52;1.80;;;0.70;;
1048;SDS011;513;51.444;7.196;2022-09-09T15:33:20;1.20;;;0.40;;
1048;SDS011;513;51.444;7.196;2022-09-09T15:35:48;1.50;;;0.50;;
1048;SDS011;513;51.444;7.196;2022-09-09T15:38:16;2.97;;;0.67;;
1048;SDS011;513;51.444;7.196;2022-09-09T15:40:44;1.97;;;0.50;;
1048;SDS011;513;51.444;7.196;2022-09-09T15:43:13;1.33;;;0.43;;
1048;SDS011;513;51.444;7.196;2022-09-09T15:45:39;1.13;;;0.50;;
1048;SDS011;513;51.444;7.196;2022-09-09T15:48:06;0.50;;;0.40;;
1048;SDS011;513;51.444;7.196;2022-09-09T15:50:36;1.33;;;0.50;;
1048;SDS011;513;51.444;7.196;2022-09-09T15:53:03;1.77;;;0.60;;
1048;SDS011;513;51.444;7.196;2022-09-09T15:55:31;3.10;;;0.50;;